sensor_id;sensor_type;location;lat;lon;timestamp;P1;durP1;ratioP1;P2;durP2;ratioP2
74674;SDS011;63200;48.810;12.352;2022-10-17T00:00:10;7.47;;;4.00;;
74674;SDS011;63200;48.810;12.352;2022-10-17T00:02:36;9.45;;;5.40;;
74674;SDS011;63200;48.810;12.352;2022-10-17T00:05:01;8.85;;;4.85;;
74674;SDS011;63200;48.810;12.352;2022-10-17T00:07:27;9.75;;;4.88;;
74674;SDS011;63200;48.810;12.352;2022-10-17T00:09:54;7.35;;;4.50;;
74674;SDS011;63200;48.810;12.352;2022-10-17T00:12:19;11.70;;;4.30;;
74674;SDS011;63200;48.810;12.352;2022-10-17T00:14:44;13.00;;;4.30;;
74674;SDS011;63200;48.810;12.352;2022-10-17T00:17:10;16.85;;;4.63;;
74674;SDS011;63200;48.810;12.352;2022-10-17T00:19:35;12.43;;;5.30;;
74674;SDS011;63200;48.810;12.352;2022-10-17T00:22:00;10.18;;;5.68;;
74674;SDS011;63200;48.810;12.352;2022-10-17T00:24:26;15.13;;;4.43;;
74674;SDS011;63200;48.810;12.352;2022-10-17T00:26:51;15.30;;;5.10;;
74674;SDS011;63200;48.810;12.352;2022-10-17T00:29:16;15.75;;;5.30;;
74674;SDS011;63200;48.810;12.352;2022-10-17T00:31:42;15.45;;;4.97;;
74674;SDS011;63200;48.810;12.352;2022-10-17T00:34:07;16.55;;;6.97;;
74674;SDS011;63200;48.810;12.352;2022-10-17T00:36:32;16.25;;;6.35;;
74674;SDS011;63200;48.810;12.352;2022-10-17T00:38:58;16.05;;;5.93;;
74674;SDS011;63200;48.810;12.352;2022-10-17T00:41:28;14.13;;;6.15;;
74674;SDS011;63200;48.810;12.352;2022-10-17T00:44:03;10.13;;;6.30;;
74674;SDS011;63200;48.810;12.352;2022-10-17T00:46:33;13.15;;;5.47;;
74674;SDS011;63200;48.810;12.352;2022-10-17T00:49:02;11.93;;;5.50;;
74674;SDS011;63200;48.810;12.352;2022-10-17T00:51:36;12.48;;;5.43;;
74674;SDS011;63200;48.810;12.352;2022-10-17T00:54:05;11.38;;;5.20;;
74674;SDS011;63200;48.810;12.352;2022-10-17T00:56:32;9.45;;;5.50;;
74674;SDS011;63200;48.810;12.352;2022-10-17T00:58:58;9.73;;;4.68;;
74674;SDS011;63200;48.810;12.352;2022-10-17T01:01:23;12.20;;;4.43;;
74674;SDS011;63200;48.810;12.352;2022-10-17T01:03:49;6.30;;;3.83;;
74674;SDS011;63200;48.810;12.352;2022-10-17T01:06:15;10.65;;;4.80;;
74674;SDS011;63200;48.810;12.352;2022-10-17T01:08:40;7.75;;;4.05;;
74674;SDS011;63200;48.810;12.352;2022-10-17T01:14:04;16.08;;;4.00;;
74674;SDS011;63200;48.810;12.352;2022-10-17T01:16:44;9.27;;;4.22;;
74674;SDS011;63200;48.810;12.352;2022-10-17T01:32:48;7.68;;;4.00;;
74674;SDS011;63200;48.810;12.352;2022-10-17T01:35:25;9.52;;;4.30;;
74674;SDS011;63200;48.810;12.352;2022-10-17T01:38:07;8.98;;;4.50;;
74674;SDS011;63200;48.810;12.352;2022-10-17T01:40:36;6.47;;;3.58;;
74674;SDS011;63200;48.810;12.352;2022-10-17T01:43:08;10.48;;;4.15;;
74674;SDS011;63200;48.810;12.352;2022-10-17T01:45:42;11.35;;;4.53;;
74674;SDS011;63200;48.810;12.352;2022-10-17T01:48:15;9.30;;;4.20;;
74674;SDS011;63200;48.810;12.352;2022-10-17T01:50:47;39.13;;;5.50;;
74674;SDS011;63200;48.810;12.352;2022-10-17T01:53:23;12.30;;;4.65;;
74674;SDS011;63200;48.810;12.352;2022-10-17T01:56:03;13.63;;;5.20;;
74674;SDS011;63200;48.810;12.352;2022-10-17T01:58:37;11.55;;;4.18;;
74674;SDS011;63200;48.810;12.352;2022-10-17T02:01:08;19.52;;;4.32;;
74674;SDS011;63200;48.810;12.352;2022-10-17T02:03:36;10.02;;;4.22;;
74674;SDS011;63200;48.810;12.352;2022-10-17T02:06:06;9.57;;;4.50;;
74674;SDS011;63200;48.810;12.352;2022-10-17T02:08:41;11.05;;;4.20;;
74674;SDS011;63200;48.810;12.352;2022-10-17T02:11:15;20.58;;;5.00;;
74674;SDS011;63200;48.810;12.352;2022-10-17T02:19:06;8.18;;;5.03;;
74674;SDS011;63200;48.810;12.352;2022-10-17T02:21:52;11.32;;;5.47;;
74674;SDS011;63200;48.810;12.352;2022-10-17T02:33:00;115.70;;;6.88;;
74674;SDS011;63200;48.810;12.352;2022-10-17T02:35:32;31.70;;;5.15;;
74674;SDS011;63200;48.810;12.352;2022-10-17T02:38:02;8.88;;;5.25;;
74674;SDS011;63200;48.810;12.352;2022-10-17T02:40:30;13.52;;;5.75;;
74674;SDS011;63200;48.810;12.352;2022-10-17T02:42:57;26.77;;;12.48;;
74674;SDS011;63200;48.810;12.352;2022-10-17T02:45:27;43.25;;;16.63;;
74674;SDS011;63200;48.810;12.352;2022-10-17T02:48:01;59.25;;;13.43;;
74674;SDS011;63200;48.810;12.352;2022-10-17T02:51:21;54.15;;;10.40;;
74674;SDS011;63200;48.810;12.352;2022-10-17T02:54:07;50.28;;;7.57;;
74674;SDS011;63200;48.810;12.352;2022-10-17T02:56:36;31.33;;;6.20;;
74674;SDS011;63200;48.810;12.352;2022-10-17T02:59:08;30.88;;;6.00;;
74674;SDS011;63200;48.810;12.352;2022-10-17T03:01:38;66.57;;;6.80;;
74674;SDS011;63200;48.810;12.352;2022-10-17T03:04:07;105.75;;;7.60;;
74674;SDS011;63200;48.810;12.352;2022-10-17T03:06:35;82.10;;;7.15;;
74674;SDS011;63200;48.810;12.352;2022-10-17T03:09:00;41.75;;;7.07;;
74674;SDS011;63200;48.810;12.352;2022-10-17T03:11:26;42.50;;;6.38;;
74674;SDS011;63200;48.810;12.352;2022-10-17T03:13:51;27.45;;;5.75;;
74674;SDS011;63200;48.810;12.352;2022-10-17T03:16:16;28.92;;;5.70;;
74674;SDS011;63200;48.810;12.352;2022-10-17T03:18:42;21.17;;;6.43;;
74674;SDS011;63200;48.810;12.352;2022-10-17T03:21:07;12.48;;;6.50;;
74674;SDS011;63200;48.810;12.352;2022-10-17T03:23:32;8.10;;;5.97;;
74674;SDS011;63200;48.810;12.352;2022-10-17T03:25:57;10.13;;;6.40;;
74674;SDS011;63200;48.810;12.352;2022-10-17T03:28:27;17.15;;;7.30;;
74674;SDS011;63200;48.810;12.352;2022-10-17T03:30:53;11.77;;;7.47;;
74674;SDS011;63200;48.810;12.352;2022-10-17T03:33:18;9.45;;;6.25;;
74674;SDS011;63200;48.810;12.352;2022-10-17T03:35:43;5.55;;;4.57;;
74674;SDS011;63200;48.810;12.352;2022-10-17T03:38:09;14.35;;;4.03;;
74674;SDS011;63200;48.810;12.352;2022-10-17T03:40:34;15.00;;;4.03;;
74674;SDS011;63200;48.810;12.352;2022-10-17T03:42:59;8.07;;;4.25;;
74674;SDS011;63200;48.810;12.352;2022-10-17T03:45:25;12.40;;;4.28;;
74674;SDS011;63200;48.810;12.352;2022-10-17T03:47:50;17.48;;;5.07;;
74674;SDS011;63200;48.810;12.352;2022-10-17T03:50:15;7.47;;;4.78;;
74674;SDS011;63200;48.810;12.352;2022-10-17T03:52:41;16.50;;;4.55;;
74674;SDS011;63200;48.810;12.352;2022-10-17T03:55:06;8.98;;;4.05;;
74674;SDS011;63200;48.810;12.352;2022-10-17T03:57:33;6.75;;;3.83;;
74674;SDS011;63200;48.810;12.352;2022-10-17T03:59:59;11.45;;;3.80;;
74674;SDS011;63200;48.810;12.352;2022-10-17T04:02:25;13.70;;;4.50;;
74674;SDS011;63200;48.810;12.352;2022-10-17T04:04:50;12.35;;;4.32;;
74674;SDS011;63200;48.810;12.352;2022-10-17T04:07:15;13.15;;;4.78;;
74674;SDS011;63200;48.810;12.352;2022-10-17T04:09:41;14.05;;;4.75;;
74674;SDS011;63200;48.810;12.352;2022-10-17T04:12:06;12.23;;;4.28;;
74674;SDS011;63200;48.810;12.352;2022-10-17T04:14:32;12.07;;;4.57;;
74674;SDS011;63200;48.810;12.352;2022-10-17T04:16:57;13.75;;;3.67;;
74674;SDS011;63200;48.810;12.352;2022-10-17T04:19:23;10.63;;;3.90;;
74674;SDS011;63200;48.810;12.352;2022-10-17T04:21:49;13.45;;;3.80;;
74674;SDS011;63200;48.810;12.352;2022-10-17T04:24:15;7.75;;;4.10;;
74674;SDS011;63200;48.810;12.352;2022-10-17T04:26:40;10.88;;;4.32;;
74674;SDS011;63200;48.810;12.352;2022-10-17T04:29:06;6.05;;;4.65;;
74674;SDS011;63200;48.810;12.352;2022-10-17T04:31:31;10.02;;;4.55;;
74674;SDS011;63200;48.810;12.352;2022-10-17T04:33:56;8.73;;;4.65;;
74674;SDS011;63200;48.810;12.352;2022-10-17T04:36:21;17.52;;;6.15;;
74674;SDS011;63200;48.810;12.352;2022-10-17T04:38:47;25.90;;;5.50;;
74674;SDS011;63200;48.810;12.352;2022-10-17T04:41:14;30.98;;;6.22;;
74674;SDS011;63200;48.810;12.352;2022-10-17T04:43:41;35.78;;;6.35;;
74674;SDS011;63200;48.810;12.352;2022-10-17T04:46:10;28.95;;;6.13;;
74674;SDS011;63200;48.810;12.352;2022-10-17T04:48:37;26.15;;;6.45;;
74674;SDS011;63200;48.810;12.352;2022-10-17T04:51:04;41.08;;;6.40;;
74674;SDS011;63200;48.810;12.352;2022-10-17T04:53:37;28.83;;;7.00;;
74674;SDS011;63200;48.810;12.352;2022-10-17T04:56:07;32.83;;;6.55;;
74674;SDS011;63200;48.810;12.352;2022-10-17T04:58:35;25.15;;;6.38;;
74674;SDS011;63200;48.810;12.352;2022-10-17T05:01:05;44.08;;;6.57;;
74674;SDS011;63200;48.810;12.352;2022-10-17T05:03:42;19.83;;;5.82;;
74674;SDS011;63200;48.810;12.352;2022-10-17T05:06:10;37.67;;;6.60;;
74674;SDS011;63200;48.810;12.352;2022-10-17T05:08:38;39.05;;;6.78;;
74674;SDS011;63200;48.810;12.352;2022-10-17T05:11:04;35.42;;;6.85;;
74674;SDS011;63200;48.810;12.352;2022-10-17T05:13:38;33.90;;;6.75;;
74674;SDS011;63200;48.810;12.352;2022-10-17T05:16:04;39.78;;;6.88;;
74674;SDS011;63200;48.810;12.352;2022-10-17T05:18:29;21.73;;;5.57;;
74674;SDS011;63200;48.810;12.352;2022-10-17T05:20:55;40.70;;;6.25;;
74674;SDS011;63200;48.810;12.352;2022-10-17T05:23:21;26.08;;;5.80;;
74674;SDS011;63200;48.810;12.352;2022-10-17T05:25:46;44.45;;;6.65;;
74674;SDS011;63200;48.810;12.352;2022-10-17T05:28:12;23.95;;;6.35;;
74674;SDS011;63200;48.810;12.352;2022-10-17T05:30:37;26.05;;;6.18;;
74674;SDS011;63200;48.810;12.352;2022-10-17T05:33:02;19.63;;;4.70;;
74674;SDS011;63200;48.810;12.352;2022-10-17T05:35:28;20.90;;;4.70;;
74674;SDS011;63200;48.810;12.352;2022-10-17T05:37:53;16.67;;;4.68;;
74674;SDS011;63200;48.810;12.352;2022-10-17T05:40:19;19.50;;;4.35;;
74674;SDS011;63200;48.810;12.352;2022-10-17T05:42:45;17.23;;;4.97;;
74674;SDS011;63200;48.810;12.352;2022-10-17T05:45:11;17.85;;;4.32;;
74674;SDS011;63200;48.810;12.352;2022-10-17T05:47:37;26.10;;;5.00;;
74674;SDS011;63200;48.810;12.352;2022-10-17T05:50:02;15.48;;;5.03;;
74674;SDS011;63200;48.810;12.352;2022-10-17T05:52:28;16.77;;;4.85;;
74674;SDS011;63200;48.810;12.352;2022-10-17T05:54:53;12.40;;;4.50;;
74674;SDS011;63200;48.810;12.352;2022-10-17T05:57:18;13.38;;;4.70;;
74674;SDS011;63200;48.810;12.352;2022-10-17T05:59:44;6.53;;;4.32;;
74674;SDS011;63200;48.810;12.352;2022-10-17T06:02:11;23.58;;;5.90;;
74674;SDS011;63200;48.810;12.352;2022-10-17T06:04:36;14.10;;;4.43;;
74674;SDS011;63200;48.810;12.352;2022-10-17T06:07:02;14.30;;;4.88;;
74674;SDS011;63200;48.810;12.352;2022-10-17T06:09:27;22.65;;;5.45;;
74674;SDS011;63200;48.810;12.352;2022-10-17T06:11:53;6.00;;;4.45;;
74674;SDS011;63200;48.810;12.352;2022-10-17T06:14:18;15.63;;;5.38;;
74674;SDS011;63200;48.810;12.352;2022-10-17T06:16:43;12.60;;;4.90;;
74674;SDS011;63200;48.810;12.352;2022-10-17T06:19:09;14.15;;;5.05;;
74674;SDS011;63200;48.810;12.352;2022-10-17T06:21:35;15.27;;;5.43;;
74674;SDS011;63200;48.810;12.352;2022-10-17T06:24:02;22.63;;;5.40;;
74674;SDS011;63200;48.810;12.352;2022-10-17T06:26:28;12.85;;;5.35;;
74674;SDS011;63200;48.810;12.352;2022-10-17T06:28:53;33.67;;;5.28;;
74674;SDS011;63200;48.810;12.352;2022-10-17T06:31:19;40.67;;;5.97;;
74674;SDS011;63200;48.810;12.352;2022-10-17T06:33:44;58.45;;;6.80;;
74674;SDS011;63200;48.810;12.352;2022-10-17T06:36:11;45.03;;;6.28;;
74674;SDS011;63200;48.810;12.352;2022-10-17T06:38:38;25.85;;;6.45;;
74674;SDS011;63200;48.810;12.352;2022-10-17T06:41:05;25.25;;;6.30;;
74674;SDS011;63200;48.810;12.352;2022-10-17T06:43:33;29.08;;;6.43;;
74674;SDS011;63200;48.810;12.352;2022-10-17T06:46:00;22.27;;;6.55;;
74674;SDS011;63200;48.810;12.352;2022-10-17T06:48:25;44.75;;;6.30;;
74674;SDS011;63200;48.810;12.352;2022-10-17T06:50:50;41.88;;;6.30;;
74674;SDS011;63200;48.810;12.352;2022-10-17T06:53:16;43.15;;;6.80;;
74674;SDS011;63200;48.810;12.352;2022-10-17T06:55:41;52.22;;;7.00;;
74674;SDS011;63200;48.810;12.352;2022-10-17T06:58:07;56.90;;;7.15;;
74674;SDS011;63200;48.810;12.352;2022-10-17T07:00:32;26.85;;;6.32;;
74674;SDS011;63200;48.810;12.352;2022-10-17T07:02:57;34.33;;;6.45;;
74674;SDS011;63200;48.810;12.352;2022-10-17T07:05:22;31.60;;;6.70;;
74674;SDS011;63200;48.810;12.352;2022-10-17T07:07:48;42.33;;;7.78;;
74674;SDS011;63200;48.810;12.352;2022-10-17T07:10:13;39.47;;;9.52;;
74674;SDS011;63200;48.810;12.352;2022-10-17T07:12:39;40.60;;;8.05;;
74674;SDS011;63200;48.810;12.352;2022-10-17T07:15:04;36.80;;;5.78;;
74674;SDS011;63200;48.810;12.352;2022-10-17T07:17:30;31.60;;;5.97;;
74674;SDS011;63200;48.810;12.352;2022-10-17T07:19:55;21.83;;;6.10;;
74674;SDS011;63200;48.810;12.352;2022-10-17T07:22:20;27.30;;;7.20;;
74674;SDS011;63200;48.810;12.352;2022-10-17T07:24:46;22.58;;;7.05;;
74674;SDS011;63200;48.810;12.352;2022-10-17T07:27:11;36.30;;;7.75;;
74674;SDS011;63200;48.810;12.352;2022-10-17T07:29:37;51.83;;;8.50;;
74674;SDS011;63200;48.810;12.352;2022-10-17T07:32:03;22.27;;;8.00;;
74674;SDS011;63200;48.810;12.352;2022-10-17T07:34:32;10.90;;;7.20;;
74674;SDS011;63200;48.810;12.352;2022-10-17T07:37:01;8.98;;;6.85;;
74674;SDS011;63200;48.810;12.352;2022-10-17T07:39:27;8.77;;;6.93;;
74674;SDS011;63200;48.810;12.352;2022-10-17T07:41:53;10.63;;;7.07;;
74674;SDS011;63200;48.810;12.352;2022-10-17T07:44:18;8.05;;;6.68;;
74674;SDS011;63200;48.810;12.352;2022-10-17T07:46:44;8.98;;;7.00;;
74674;SDS011;63200;48.810;12.352;2022-10-17T07:49:09;6.68;;;5.95;;
74674;SDS011;63200;48.810;12.352;2022-10-17T07:51:35;7.95;;;6.38;;
74674;SDS011;63200;48.810;12.352;2022-10-17T07:54:00;9.45;;;6.30;;
74674;SDS011;63200;48.810;12.352;2022-10-17T07:56:25;13.15;;;7.00;;
74674;SDS011;63200;48.810;12.352;2022-10-17T07:58:51;12.70;;;8.18;;
74674;SDS011;63200;48.810;12.352;2022-10-17T08:01:17;17.20;;;10.02;;
74674;SDS011;63200;48.810;12.352;2022-10-17T08:03:43;17.77;;;11.52;;
74674;SDS011;63200;48.810;12.352;2022-10-17T08:06:10;20.02;;;11.73;;
74674;SDS011;63200;48.810;12.352;2022-10-17T08:08:36;19.73;;;11.35;;
74674;SDS011;63200;48.810;12.352;2022-10-17T08:11:05;27.25;;;12.75;;
74674;SDS011;63200;48.810;12.352;2022-10-17T08:13:32;19.27;;;11.30;;
74674;SDS011;63200;48.810;12.352;2022-10-17T08:15:59;24.25;;;11.57;;
74674;SDS011;63200;48.810;12.352;2022-10-17T08:18:28;28.42;;;12.15;;
74674;SDS011;63200;48.810;12.352;2022-10-17T08:20:53;23.15;;;12.40;;
74674;SDS011;63200;48.810;12.352;2022-10-17T08:23:19;30.33;;;13.00;;
74674;SDS011;63200;48.810;12.352;2022-10-17T08:25:44;27.00;;;13.57;;
74674;SDS011;63200;48.810;12.352;2022-10-17T08:28:10;21.15;;;12.85;;
74674;SDS011;63200;48.810;12.352;2022-10-17T08:30:35;27.95;;;15.68;;
74674;SDS011;63200;48.810;12.352;2022-10-17T08:33:01;31.95;;;17.20;;
74674;SDS011;63200;48.810;12.352;2022-10-17T08:35:26;26.92;;;16.13;;
74674;SDS011;63200;48.810;12.352;2022-10-17T08:37:52;29.33;;;16.42;;
74674;SDS011;63200;48.810;12.352;2022-10-17T08:40:24;30.13;;;16.38;;
74674;SDS011;63200;48.810;12.352;2022-10-17T08:45:32;35.90;;;19.35;;
74674;SDS011;63200;48.810;12.352;2022-10-17T08:48:07;34.45;;;18.90;;
74674;SDS011;63200;48.810;12.352;2022-10-17T08:50:50;32.78;;;18.20;;
74674;SDS011;63200;48.810;12.352;2022-10-17T08:53:18;29.42;;;17.48;;
74674;SDS011;63200;48.810;12.352;2022-10-17T08:55:50;32.03;;;18.60;;
74674;SDS011;63200;48.810;12.352;2022-10-17T09:00:52;33.75;;;20.45;;
74674;SDS011;63200;48.810;12.352;2022-10-17T09:06:31;36.92;;;19.45;;
74674;SDS011;63200;48.810;12.352;2022-10-17T09:12:13;36.58;;;19.65;;
74674;SDS011;63200;48.810;12.352;2022-10-17T09:17:50;33.13;;;19.65;;
74674;SDS011;63200;48.810;12.352;2022-10-17T09:20:24;34.25;;;20.05;;
74674;SDS011;63200;48.810;12.352;2022-10-17T09:22:57;32.65;;;19.95;;
74674;SDS011;63200;48.810;12.352;2022-10-17T09:25:25;34.33;;;20.20;;
74674;SDS011;63200;48.810;12.352;2022-10-17T09:27:58;34.22;;;19.33;;
74674;SDS011;63200;48.810;12.352;2022-10-17T09:33:25;35.00;;;19.63;;
74674;SDS011;63200;48.810;12.352;2022-10-17T09:35:53;33.40;;;19.17;;
74674;SDS011;63200;48.810;12.352;2022-10-17T09:38:21;34.70;;;20.85;;
74674;SDS011;63200;48.810;12.352;2022-10-17T09:40:59;34.13;;;19.85;;
74674;SDS011;63200;48.810;12.352;2022-10-17T09:43:26;31.55;;;19.25;;
74674;SDS011;63200;48.810;12.352;2022-10-17T09:46:05;33.10;;;19.50;;
74674;SDS011;63200;48.810;12.352;2022-10-17T09:48:43;36.65;;;20.10;;
74674;SDS011;63200;48.810;12.352;2022-10-17T09:51:12;31.17;;;19.77;;
74674;SDS011;63200;48.810;12.352;2022-10-17T09:53:39;38.58;;;20.15;;
74674;SDS011;63200;48.810;12.352;2022-10-17T09:56:12;31.58;;;19.48;;
74674;SDS011;63200;48.810;12.352;2022-10-17T09:58:47;32.15;;;19.33;;
74674;SDS011;63200;48.810;12.352;2022-10-17T10:01:18;29.60;;;18.75;;
74674;SDS011;63200;48.810;12.352;2022-10-17T10:03:44;28.00;;;18.52;;
74674;SDS011;63200;48.810;12.352;2022-10-17T10:06:13;33.65;;;18.95;;
74674;SDS011;63200;48.810;12.352;2022-10-17T10:11:22;33.30;;;19.58;;
74674;SDS011;63200;48.810;12.352;2022-10-17T10:13:50;37.78;;;19.13;;
74674;SDS011;63200;48.810;12.352;2022-10-17T10:16:25;30.10;;;18.70;;
74674;SDS011;63200;48.810;12.352;2022-10-17T10:18:55;33.88;;;18.77;;
74674;SDS011;63200;48.810;12.352;2022-10-17T10:21:25;28.50;;;17.98;;
74674;SDS011;63200;48.810;12.352;2022-10-17T10:24:05;27.65;;;17.13;;
74674;SDS011;63200;48.810;12.352;2022-10-17T10:26:43;29.85;;;18.02;;
74674;SDS011;63200;48.810;12.352;2022-10-17T10:31:55;24.98;;;16.27;;
74674;SDS011;63200;48.810;12.352;2022-10-17T10:34:35;26.83;;;16.73;;
74674;SDS011;63200;48.810;12.352;2022-10-17T10:37:04;27.20;;;17.13;;
74674;SDS011;63200;48.810;12.352;2022-10-17T10:39:50;25.67;;;16.65;;
74674;SDS011;63200;48.810;12.352;2022-10-17T10:45:17;18.90;;;13.98;;
74674;SDS011;63200;48.810;12.352;2022-10-17T10:47:58;20.85;;;14.32;;
74674;SDS011;63200;48.810;12.352;2022-10-17T10:50:48;25.23;;;15.25;;
74674;SDS011;63200;48.810;12.352;2022-10-17T10:53:28;23.95;;;14.07;;
74674;SDS011;63200;48.810;12.352;2022-10-17T10:56:01;20.05;;;14.65;;
74674;SDS011;63200;48.810;12.352;2022-10-17T11:01:30;20.50;;;13.30;;
74674;SDS011;63200;48.810;12.352;2022-10-17T11:04:18;20.98;;;13.68;;
74674;SDS011;63200;48.810;12.352;2022-10-17T11:06:48;22.90;;;13.45;;
74674;SDS011;63200;48.810;12.352;2022-10-17T11:12:12;21.85;;;13.68;;
74674;SDS011;63200;48.810;12.352;2022-10-17T11:14:59;18.83;;;14.50;;
74674;SDS011;63200;48.810;12.352;2022-10-17T11:18:28;23.73;;;15.30;;
74674;SDS011;63200;48.810;12.352;2022-10-17T11:23:13;20.00;;;13.82;;
74674;SDS011;63200;48.810;12.352;2022-10-17T11:25:45;23.13;;;14.80;;
74674;SDS011;63200;48.810;12.352;2022-10-17T11:28:14;20.77;;;13.60;;
74674;SDS011;63200;48.810;12.352;2022-10-17T11:33:22;25.92;;;15.95;;
74674;SDS011;63200;48.810;12.352;2022-10-17T11:35:52;25.95;;;14.60;;
74674;SDS011;63200;48.810;12.352;2022-10-17T11:38:35;25.35;;;14.80;;
74674;SDS011;63200;48.810;12.352;2022-10-17T11:41:05;21.40;;;14.50;;
74674;SDS011;63200;48.810;12.352;2022-10-17T11:43:39;19.75;;;14.57;;
74674;SDS011;63200;48.810;12.352;2022-10-17T11:46:20;21.80;;;14.85;;
74674;SDS011;63200;48.810;12.352;2022-10-17T11:54:44;19.60;;;13.52;;
74674;SDS011;63200;48.810;12.352;2022-10-17T12:02:49;20.63;;;13.07;;
74674;SDS011;63200;48.810;12.352;2022-10-17T12:05:25;23.35;;;12.98;;
74674;SDS011;63200;48.810;12.352;2022-10-17T12:10:44;22.92;;;13.18;;
74674;SDS011;63200;48.810;12.352;2022-10-17T12:15:52;20.10;;;13.25;;
74674;SDS011;63200;48.810;12.352;2022-10-17T12:18:18;14.63;;;11.75;;
74674;SDS011;63200;48.810;12.352;2022-10-17T12:20:53;18.75;;;12.15;;
74674;SDS011;63200;48.810;12.352;2022-10-17T12:23:30;19.13;;;11.90;;
74674;SDS011;63200;48.810;12.352;2022-10-17T12:28:41;14.75;;;11.57;;
74674;SDS011;63200;48.810;12.352;2022-10-17T12:33:52;17.15;;;11.45;;
74674;SDS011;63200;48.810;12.352;2022-10-17T12:38:48;16.83;;;9.90;;
74674;SDS011;63200;48.810;12.352;2022-10-17T12:41:17;13.88;;;9.45;;
74674;SDS011;63200;48.810;12.352;2022-10-17T12:46:45;16.90;;;9.77;;
74674;SDS011;63200;48.810;12.352;2022-10-17T12:49:19;14.82;;;8.85;;
74674;SDS011;63200;48.810;12.352;2022-10-17T12:57:20;14.52;;;9.10;;
74674;SDS011;63200;48.810;12.352;2022-10-17T12:59:46;10.25;;;8.15;;
74674;SDS011;63200;48.810;12.352;2022-10-17T13:02:15;10.77;;;8.60;;
74674;SDS011;63200;48.810;12.352;2022-10-17T13:04:44;12.50;;;8.73;;
74674;SDS011;63200;48.810;12.352;2022-10-17T13:07:14;12.15;;;8.82;;
74674;SDS011;63200;48.810;12.352;2022-10-17T13:09:43;8.52;;;7.20;;
74674;SDS011;63200;48.810;12.352;2022-10-17T13:12:11;12.48;;;7.00;;
74674;SDS011;63200;48.810;12.352;2022-10-17T13:14:40;7.82;;;7.00;;
74674;SDS011;63200;48.810;12.352;2022-10-17T13:17:12;8.88;;;6.53;;
74674;SDS011;63200;48.810;12.352;2022-10-17T13:19:45;7.50;;;6.75;;
74674;SDS011;63200;48.810;12.352;2022-10-17T13:24:39;8.02;;;6.05;;
74674;SDS011;63200;48.810;12.352;2022-10-17T13:27:27;11.20;;;6.85;;
74674;SDS011;63200;48.810;12.352;2022-10-17T13:29:55;7.15;;;6.45;;
74674;SDS011;63200;48.810;12.352;2022-10-17T13:32:23;8.02;;;6.20;;
74674;SDS011;63200;48.810;12.352;2022-10-17T13:37:31;7.47;;;6.22;;
74674;SDS011;63200;48.810;12.352;2022-10-17T13:39:58;7.90;;;6.03;;
74674;SDS011;63200;48.810;12.352;2022-10-17T13:42:35;7.03;;;6.30;;
74674;SDS011;63200;48.810;12.352;2022-10-17T13:45:03;9.57;;;5.90;;
74674;SDS011;63200;48.810;12.352;2022-10-17T13:47:36;7.28;;;5.93;;
74674;SDS011;63200;48.810;12.352;2022-10-17T13:50:03;6.45;;;5.85;;
74674;SDS011;63200;48.810;12.352;2022-10-17T13:52:29;6.43;;;5.03;;
74674;SDS011;63200;48.810;12.352;2022-10-17T13:54:55;7.32;;;5.43;;
74674;SDS011;63200;48.810;12.352;2022-10-17T13:57:32;5.50;;;5.03;;
74674;SDS011;63200;48.810;12.352;2022-10-17T14:00:02;6.32;;;5.25;;
74674;SDS011;63200;48.810;12.352;2022-10-17T14:02:31;9.80;;;5.30;;
74674;SDS011;63200;48.810;12.352;2022-10-17T14:05:19;8.90;;;4.80;;
74674;SDS011;63200;48.810;12.352;2022-10-17T14:12:45;5.70;;;5.20;;
74674;SDS011;63200;48.810;12.352;2022-10-17T14:15:12;7.57;;;4.10;;
74674;SDS011;63200;48.810;12.352;2022-10-17T14:17:39;11.50;;;3.95;;
74674;SDS011;63200;48.810;12.352;2022-10-17T14:20:06;6.43;;;5.70;;
74674;SDS011;63200;48.810;12.352;2022-10-17T14:22:34;12.77;;;5.07;;
74674;SDS011;63200;48.810;12.352;2022-10-17T14:25:00;10.18;;;5.32;;
74674;SDS011;63200;48.810;12.352;2022-10-17T14:27:29;11.00;;;4.30;;
74674;SDS011;63200;48.810;12.352;2022-10-17T14:30:00;11.50;;;3.80;;
74674;SDS011;63200;48.810;12.352;2022-10-17T14:32:30;4.43;;;3.20;;
74674;SDS011;63200;48.810;12.352;2022-10-17T14:34:58;2.75;;;2.65;;
74674;SDS011;63200;48.810;12.352;2022-10-17T14:40:04;4.20;;;2.95;;
74674;SDS011;63200;48.810;12.352;2022-10-17T14:42:31;3.42;;;2.95;;
74674;SDS011;63200;48.810;12.352;2022-10-17T14:45:05;3.95;;;2.83;;
74674;SDS011;63200;48.810;12.352;2022-10-17T14:47:32;3.28;;;3.03;;
74674;SDS011;63200;48.810;12.352;2022-10-17T14:50:03;3.50;;;3.30;;
74674;SDS011;63200;48.810;12.352;2022-10-17T14:52:32;5.60;;;3.70;;
74674;SDS011;63200;48.810;12.352;2022-10-17T14:54:59;4.53;;;3.13;;
74674;SDS011;63200;48.810;12.352;2022-10-17T14:57:42;4.82;;;3.35;;
74674;SDS011;63200;48.810;12.352;2022-10-17T15:00:12;4.10;;;3.35;;
74674;SDS011;63200;48.810;12.352;2022-10-17T15:02:39;5.43;;;3.67;;
74674;SDS011;63200;48.810;12.352;2022-10-17T15:05:04;3.80;;;3.50;;
74674;SDS011;63200;48.810;12.352;2022-10-17T15:07:30;5.05;;;3.47;;
74674;SDS011;63200;48.810;12.352;2022-10-17T15:09:55;3.60;;;3.30;;
74674;SDS011;63200;48.810;12.352;2022-10-17T15:12:21;3.88;;;3.60;;
74674;SDS011;63200;48.810;12.352;2022-10-17T15:14:48;3.92;;;3.67;;
74674;SDS011;63200;48.810;12.352;2022-10-17T15:17:19;8.52;;;3.40;;
74674;SDS011;63200;48.810;12.352;2022-10-17T15:19:48;5.57;;;3.40;;
74674;SDS011;63200;48.810;12.352;2022-10-17T15:22:14;7.75;;;4.00;;
74674;SDS011;63200;48.810;12.352;2022-10-17T15:24:40;6.05;;;3.55;;
74674;SDS011;63200;48.810;12.352;2022-10-17T15:27:06;4.20;;;3.80;;
74674;SDS011;63200;48.810;12.352;2022-10-17T15:29:41;4.05;;;3.75;;
74674;SDS011;63200;48.810;12.352;2022-10-17T15:32:07;12.93;;;4.20;;
74674;SDS011;63200;48.810;12.352;2022-10-17T15:34:32;4.93;;;3.80;;
74674;SDS011;63200;48.810;12.352;2022-10-17T15:36:58;4.65;;;4.25;;
74674;SDS011;63200;48.810;12.352;2022-10-17T15:39:23;4.97;;;4.50;;
74674;SDS011;63200;48.810;12.352;2022-10-17T15:41:48;7.82;;;4.45;;
74674;SDS011;63200;48.810;12.352;2022-10-17T15:44:14;4.60;;;4.30;;
74674;SDS011;63200;48.810;12.352;2022-10-17T15:46:39;8.65;;;4.40;;
74674;SDS011;63200;48.810;12.352;2022-10-17T15:49:06;6.95;;;4.30;;
74674;SDS011;63200;48.810;12.352;2022-10-17T15:51:39;4.88;;;4.22;;
74674;SDS011;63200;48.810;12.352;2022-10-17T15:54:05;4.93;;;4.53;;
74674;SDS011;63200;48.810;12.352;2022-10-17T15:56:31;7.63;;;4.38;;
74674;SDS011;63200;48.810;12.352;2022-10-17T15:59:11;4.85;;;4.22;;
74674;SDS011;63200;48.810;12.352;2022-10-17T16:01:39;4.93;;;4.53;;
74674;SDS011;63200;48.810;12.352;2022-10-17T16:04:05;5.45;;;4.50;;
74674;SDS011;63200;48.810;12.352;2022-10-17T16:06:36;7.25;;;4.85;;
74674;SDS011;63200;48.810;12.352;2022-10-17T16:09:02;5.10;;;4.57;;
74674;SDS011;63200;48.810;12.352;2022-10-17T16:11:40;6.50;;;4.60;;
74674;SDS011;63200;48.810;12.352;2022-10-17T16:14:15;20.02;;;5.43;;
74674;SDS011;63200;48.810;12.352;2022-10-17T16:16:42;11.77;;;5.30;;
74674;SDS011;63200;48.810;12.352;2022-10-17T16:19:07;5.47;;;4.97;;
74674;SDS011;63200;48.810;12.352;2022-10-17T16:21:37;7.75;;;5.97;;
74674;SDS011;63200;48.810;12.352;2022-10-17T16:24:04;9.73;;;6.05;;